Aeroporto :
LOGIN :

Iscrizione | Disclaimer

   EN    FR    IT 

 










Sommario :    VFR   VFR Marginale   IFR   IFR Intensivo   IFR Molto Intensivo
Visibilità : 
Base nubi : 
>= 8 km
>= 3000ft
5 / 8 km
1000 / 3000 ft
1500m / 5 km
500 / 1000 ft
800 / 1500m
200 / 500 ft
< 800m
< 200 ft
Simboli :   Temporali  Nebbia  Neve Forte  Precipitazioni Forti  Vento > 20 kt
SIGMETs :   Varie  Temporali  Ghiacco  Turbolenza  Onda orograficha  Ceneri Vulcaniche






- Altitudine del aeroporto : 1020 ft
- Codice IATA : ILZ


LZZI - Žilina

ULTIMO METAR :
  • 031700Z 27009KT 9999 FEW060 09/M01 Q1015

METARs OBSOLETI :
  • 031630Z 27006KT CAVOK 10/M01 Q1015
  • 031600Z 30005KT 9999 FEW055 BKN075 10/M02 Q1014
  • 031530Z 32009KT 9999 SCT055 BKN070 10/M02 Q1014
  • 031500Z 30008KT 260V340 9999 SCT055 OVC078 10/M02 Q1014

TAF TAF LZZI
Valido dal 03 a 18 ore il 04 a 03 ore UTC


031700Z 0318/0403 27006KT CAVOK
TEMPO 0318/0321 9999 SCT040 BKN060



MetMap, La meteo Aeronautica in un colpo d'occhio ! - Copyright ORBIFLY Dicembre 2007 - Disclaimer

ORBIFLY MET'MAP TEAM :

Programmazione e sviluppo : Alexandra Zaïnal
Concezione : Baudouin d'Aumeries
Aiuto per la programmazione : Marc-Olivier Méhu
Supporto tecnico e logistico : Manuel Goepfert
Aiuto per la traduzione : Arnaldo La Scala

Contatto : metmap@orbifly.com




FONTI E CREDITI :

   NOAA